createdAt,value
2022-08-05T00:01:54.578Z,60.63
2022-08-05T00:04:22.882Z,60.87
2022-08-05T00:06:51.734Z,60.90
2022-08-05T00:09:20.485Z,61.08
2022-08-05T00:11:55.626Z,61.09
2022-08-05T00:14:29.062Z,61.01
2022-08-05T00:16:58.090Z,61.10
2022-08-05T00:19:33.698Z,61.11
2022-08-05T00:22:11.386Z,61.23
2022-08-05T00:24:42.199Z,60.95
2022-08-05T00:27:16.623Z,60.81
2022-08-05T00:29:45.710Z,60.71
2022-08-05T00:32:15.483Z,60.62
2022-08-05T00:35:04.581Z,60.42
2022-08-05T00:37:51.207Z,60.15
2022-08-05T00:40:26.960Z,60.44
2022-08-05T00:43:02.362Z,60.44
2022-08-05T00:45:42.856Z,60.36
2022-08-05T00:48:14.685Z,60.36
2022-08-05T00:50:46.053Z,60.36
2022-08-05T00:54:00.362Z,60.22
2022-08-05T00:56:07.702Z,59.93
2022-08-05T00:58:37.691Z,60.16
2022-08-05T01:01:08.570Z,60.17
2022-08-05T01:03:39.158Z,60.30
2022-08-05T01:06:11.379Z,60.39
2022-08-05T01:08:47.290Z,60.51
2022-08-05T01:11:24.245Z,60.50
2022-08-05T01:14:37.698Z,60.52
2022-08-05T01:17:46.116Z,60.51
2022-08-05T01:20:30.777Z,60.64
2022-08-05T01:23:34.699Z,60.67
2022-08-05T01:26:34.401Z,60.76
2022-08-05T01:29:09.028Z,60.80
2022-08-05T01:31:45.668Z,60.94
2022-08-05T01:34:26.769Z,61.02
2022-08-05T01:37:24.957Z,61.03
2022-08-05T01:39:59.022Z,61.04
2022-08-05T01:42:29.288Z,61.05
2022-08-05T01:45:02.052Z,61.07
2022-08-05T01:47:39.186Z,60.93
2022-08-05T01:50:30.674Z,60.91
2022-08-05T01:53:04.895Z,61.00
2022-08-05T01:55:36.243Z,60.90
2022-08-05T01:58:09.365Z,60.82
2022-08-05T02:00:45.901Z,61.01
2022-08-05T02:03:31.869Z,61.07
2022-08-05T02:06:23.988Z,61.22
2022-08-05T02:08:58.108Z,61.08
2022-08-05T02:11:47.918Z,61.02
2022-08-05T02:14:41.333Z,61.40
2022-08-05T02:18:31.263Z,61.52
2022-08-05T02:20:28.321Z,61.75
2022-08-05T02:23:01.410Z,62.05
2022-08-05T02:25:48.882Z,62.16
2022-08-05T02:28:36.442Z,62.36
2022-08-05T02:31:22.149Z,62.40
2022-08-05T02:34:05.426Z,62.65
2022-08-05T02:36:36.772Z,62.72
2022-08-05T02:39:10.047Z,62.54
2022-08-05T02:41:58.112Z,62.67
2022-08-05T02:44:30.431Z,62.83
2022-08-05T02:47:00.865Z,63.01
2022-08-05T02:49:37.689Z,62.92
2022-08-05T02:52:30.013Z,63.08
2022-08-05T02:55:05.562Z,62.94
2022-08-05T02:58:10.220Z,63.19
2022-08-05T03:00:25.581Z,63.21
2022-08-05T03:02:57.730Z,63.12
2022-08-05T03:06:54.363Z,63.24
2022-08-05T03:08:16.601Z,63.17
2022-08-05T03:11:53.436Z,63.01
2022-08-05T03:13:52.120Z,63.06
2022-08-05T03:16:27.726Z,63.12
2022-08-05T03:18:56.469Z,63.31
2022-08-05T03:21:24.646Z,63.11
2022-08-05T03:23:58.101Z,63.25
2022-08-05T03:26:31.638Z,63.30
2022-08-05T03:29:01.111Z,63.26
2022-08-05T03:31:56.912Z,63.48
2022-08-05T03:34:19.406Z,63.67
2022-08-05T03:36:52.700Z,63.84
2022-08-05T03:39:27.036Z,63.81
2022-08-05T03:41:56.666Z,63.83
2022-08-05T03:44:28.926Z,63.73
2022-08-05T03:46:57.424Z,63.68
2022-08-05T03:49:31.156Z,63.85
2022-08-05T03:52:50.623Z,64.00
2022-08-05T03:56:00.987Z,64.07
2022-08-05T03:58:18.239Z,64.31
2022-08-05T04:00:51.498Z,64.41
2022-08-05T04:03:28.436Z,64.59
2022-08-05T04:05:59.114Z,64.57
2022-08-05T04:08:36.326Z,64.68
2022-08-05T04:11:08.593Z,64.48
2022-08-05T04:13:50.247Z,64.55
2022-08-05T04:16:24.116Z,64.47
2022-08-05T04:18:54.912Z,64.50
2022-08-05T04:22:08.641Z,64.56
2022-08-05T04:24:19.714Z,64.41
2022-08-05T04:26:51.024Z,64.39
2022-08-05T04:29:19.794Z,64.29
2022-08-05T04:31:48.328Z,64.24
2022-08-05T04:34:31.492Z,64.19
2022-08-05T04:37:03.105Z,64.15
2022-08-05T04:39:32.308Z,64.09
2022-08-05T04:42:04.174Z,63.94
2022-08-05T04:44:32.491Z,63.84
2022-08-05T04:47:09.302Z,63.99
2022-08-05T04:50:01.782Z,64.15
2022-08-05T04:52:28.581Z,64.07
2022-08-05T04:54:57.883Z,64.12
2022-08-05T04:57:28.729Z,64.17
2022-08-05T04:59:58.597Z,64.11
2022-08-05T05:02:37.630Z,64.18
2022-08-05T05:05:26.139Z,64.27
2022-08-05T05:08:14.399Z,64.25
2022-08-05T05:10:56.733Z,64.34
2022-08-05T05:13:25.101Z,64.33
2022-08-05T05:15:56.716Z,64.44
2022-08-05T05:18:33.201Z,64.43
2022-08-05T05:21:03.943Z,64.55
2022-08-05T05:23:39.465Z,64.62
2022-08-05T05:26:28.611Z,64.64
2022-08-05T05:29:01.252Z,64.62
2022-08-05T05:34:01.861Z,64.78
2022-08-05T05:36:31.974Z,64.83
2022-08-05T05:39:00.495Z,64.89
2022-08-05T05:41:40.857Z,64.84
2022-08-05T05:44:37.409Z,65.02
2022-08-05T05:47:04.286Z,64.99
2022-08-05T05:49:33.331Z,64.97
2022-08-05T05:52:05.949Z,65.10
2022-08-05T05:54:50.427Z,65.08
2022-08-05T05:57:20.479Z,65.21
2022-08-05T05:59:49.156Z,65.12
2022-08-05T06:02:32.314Z,65.08
2022-08-05T06:05:14.659Z,65.15
2022-08-05T06:08:01.135Z,65.14
2022-08-05T06:10:36.519Z,65.11
2022-08-05T06:13:05.918Z,65.08
2022-08-05T06:16:28.596Z,65.06
2022-08-05T06:18:31.484Z,65.12
2022-08-05T06:21:00.993Z,65.15
2022-08-05T06:23:32.029Z,65.06
2022-08-05T06:26:21.634Z,65.11
2022-08-05T06:28:53.266Z,65.31
2022-08-05T06:31:22.306Z,65.26
2022-08-05T06:34:06.826Z,65.04
2022-08-05T06:36:53.565Z,64.97
2022-08-05T06:39:27.052Z,65.24
2022-08-05T06:42:04.004Z,65.34
2022-08-05T06:44:32.895Z,65.24
2022-08-05T06:47:02.234Z,65.27
2022-08-05T06:50:01.695Z,65.12
2022-08-05T06:52:37.007Z,65.10
2022-08-05T06:55:07.625Z,65.08
2022-08-05T06:58:03.858Z,65.13
2022-08-05T07:00:25.509Z,65.19
2022-08-05T07:02:54.330Z,65.00
2022-08-05T07:05:36.929Z,64.66
2022-08-05T07:08:10.742Z,64.20
2022-08-05T07:10:53.438Z,64.04
2022-08-05T07:13:57.596Z,63.78
2022-08-05T07:17:55.939Z,63.63
2022-08-05T07:20:23.108Z,63.64
2022-08-05T07:22:28.102Z,63.55
2022-08-05T07:25:23.057Z,63.28
2022-08-05T07:27:58.374Z,63.18
2022-08-05T07:30:33.751Z,63.12
2022-08-05T07:33:09.428Z,63.22
2022-08-05T07:36:05.299Z,63.06
2022-08-05T07:38:34.512Z,62.90
2022-08-05T07:42:06.863Z,62.66
2022-08-05T07:43:59.363Z,62.46
2022-08-05T07:46:30.556Z,62.45
2022-08-05T07:49:05.368Z,62.36
2022-08-05T07:51:40.826Z,62.24
2022-08-05T07:54:18.742Z,61.91
2022-08-05T07:57:14.734Z,61.87
2022-08-05T07:59:39.891Z,61.73
2022-08-05T08:02:15.641Z,61.63
2022-08-05T08:04:48.313Z,61.42
2022-08-05T08:07:22.094Z,61.35
2022-08-05T08:09:54.873Z,61.48
2022-08-05T08:12:35.396Z,61.57
2022-08-05T08:15:15.178Z,61.48
2022-08-05T08:17:49.867Z,61.15
2022-08-05T08:20:59.981Z,61.06
2022-08-05T08:24:02.164Z,60.90
2022-08-05T08:26:04.818Z,60.83
2022-08-05T08:28:36.631Z,60.28
2022-08-05T08:31:14.989Z,60.25
2022-08-05T08:33:46.912Z,60.14
2022-08-05T08:36:38.852Z,60.17
2022-08-05T08:39:15.052Z,59.86
2022-08-05T08:41:52.259Z,58.99
2022-08-05T08:45:22.764Z,58.52
2022-08-05T08:48:07.750Z,58.35
2022-08-05T08:50:31.618Z,58.09
2022-08-05T08:53:11.925Z,57.49
2022-08-05T08:56:05.015Z,56.95
2022-08-05T08:58:43.437Z,56.64
2022-08-05T09:01:18.306Z,56.88
2022-08-05T09:03:55.312Z,56.81
2022-08-05T09:06:29.539Z,56.40
2022-08-05T09:09:02.426Z,56.12
2022-08-05T09:11:50.724Z,56.16
2022-08-05T09:14:56.769Z,56.02
2022-08-05T09:17:40.155Z,54.92
2022-08-05T09:20:05.205Z,54.63
2022-08-05T09:23:05.304Z,54.34
2022-08-05T09:26:00.020Z,53.32
2022-08-05T09:28:32.365Z,53.31
2022-08-05T09:32:08.522Z,53.17
2022-08-05T09:34:10.349Z,53.07
2022-08-05T09:36:54.882Z,52.13
2022-08-05T09:39:45.136Z,51.76
2022-08-05T09:42:23.583Z,51.58
2022-08-05T09:45:03.279Z,51.77
2022-08-05T09:47:47.963Z,51.99
2022-08-05T09:50:38.736Z,51.24
2022-08-05T09:53:12.049Z,51.09
2022-08-05T09:56:04.650Z,50.33
2022-08-05T09:58:41.995Z,50.11
2022-08-05T10:01:15.222Z,50.00
2022-08-05T10:04:10.671Z,50.27
2022-08-05T10:06:41.352Z,49.92
2022-08-05T10:09:27.713Z,49.82
2022-08-05T10:12:30.289Z,49.81
2022-08-05T10:15:28.725Z,49.59
2022-08-05T10:18:13.269Z,48.57
2022-08-05T10:20:47.787Z,49.12
2022-08-05T10:23:55.060Z,48.85
2022-08-05T10:26:15.134Z,48.69
2022-08-05T10:28:45.059Z,48.33
2022-08-05T10:32:48.003Z,48.04
2022-08-05T10:34:07.879Z,46.88
2022-08-05T10:36:41.828Z,47.40
2022-08-05T10:39:59.493Z,47.21
2022-08-05T10:42:33.600Z,46.78
2022-08-05T10:45:20.913Z,46.59
2022-08-05T10:48:31.376Z,46.13
2022-08-05T10:50:59.703Z,46.01
2022-08-05T10:53:51.500Z,45.47
2022-08-05T10:56:26.535Z,45.38
2022-08-05T10:58:54.822Z,45.43
2022-08-05T11:01:54.279Z,44.95
2022-08-05T11:04:26.126Z,43.98
2022-08-05T11:07:01.438Z,44.04
2022-08-05T11:09:47.265Z,43.85
2022-08-05T11:12:34.633Z,43.48
2022-08-05T11:15:20.667Z,43.92
2022-08-05T11:18:07.293Z,43.35
2022-08-05T11:20:44.613Z,42.95
2022-08-05T11:23:33.444Z,43.33
2022-08-05T11:26:32.668Z,43.02
2022-08-05T11:29:12.077Z,43.14
2022-08-05T11:31:54.300Z,42.33
2022-08-05T11:34:39.624Z,42.48
2022-08-05T11:38:30.691Z,42.31
2022-08-05T11:40:03.117Z,41.98
2022-08-05T11:42:37.798Z,42.26
2022-08-05T11:45:23.158Z,41.89
2022-08-05T11:47:58.012Z,42.26
2022-08-05T11:50:28.085Z,41.96
2022-08-05T11:52:58.325Z,41.84
2022-08-05T11:55:32.031Z,42.06
2022-08-05T11:58:09.587Z,41.56
2022-08-05T12:00:41.506Z,40.79
2022-08-05T12:03:28.726Z,41.01
2022-08-05T12:06:05.947Z,40.06
2022-08-05T12:08:52.833Z,40.52
2022-08-05T12:11:28.260Z,40.16
2022-08-05T12:14:10.277Z,39.29
2022-08-05T12:16:45.172Z,38.40
2022-08-05T12:20:26.185Z,38.27
2022-08-05T12:22:09.589Z,38.89
2022-08-05T12:24:43.718Z,38.29
2022-08-05T12:27:26.714Z,38.20
2022-08-05T12:30:05.206Z,37.78
2022-08-05T12:32:45.931Z,37.20
2022-08-05T12:35:21.596Z,37.93
2022-08-05T12:37:53.192Z,37.99
2022-08-05T12:40:28.722Z,37.85
2022-08-05T12:42:57.982Z,38.19
2022-08-05T12:45:42.384Z,38.20
2022-08-05T12:48:27.479Z,38.24
2022-08-05T12:52:10.740Z,38.10
2022-08-05T12:54:16.666Z,38.81
2022-08-05T12:56:57.877Z,38.59
2022-08-05T12:59:46.823Z,38.29
2022-08-05T13:02:30.215Z,37.93
2022-08-05T13:04:59.055Z,37.73
2022-08-05T13:10:20.220Z,37.68
2022-08-05T13:12:57.248Z,38.00
2022-08-05T13:15:42.236Z,37.88
2022-08-05T13:18:20.554Z,37.17
2022-08-05T13:20:49.885Z,36.89
2022-08-05T13:23:22.699Z,36.98
2022-08-05T13:25:59.288Z,37.15
2022-08-05T13:28:29.314Z,36.59
2022-08-05T13:31:03.361Z,35.50
2022-08-05T13:34:23.558Z,35.68
2022-08-05T13:36:31.112Z,36.30
2022-08-05T13:38:59.441Z,36.43
2022-08-05T13:41:35.828Z,36.35
2022-08-05T13:44:06.214Z,35.99
2022-08-05T13:47:01.855Z,36.17
2022-08-05T13:49:22.907Z,35.73
2022-08-05T13:51:51.694Z,35.90
2022-08-05T13:54:24.951Z,35.83
2022-08-05T13:56:53.802Z,35.84
2022-08-05T13:59:25.326Z,35.80
2022-08-05T14:02:00.163Z,35.80
2022-08-05T14:04:52.705Z,35.75
2022-08-05T14:07:59.794Z,35.63
2022-08-05T14:10:18.763Z,35.34
2022-08-05T14:12:57.257Z,35.63
2022-08-05T14:16:08.394Z,35.66
2022-08-05T14:18:18.061Z,35.88
2022-08-05T14:20:48.443Z,36.25
2022-08-05T14:23:24.591Z,36.20
2022-08-05T14:25:58.090Z,36.02
2022-08-05T14:28:29.223Z,36.32
2022-08-05T14:30:59.752Z,36.37
2022-08-05T14:33:32.557Z,36.69
2022-08-05T14:36:21.396Z,36.29
2022-08-05T14:38:51.148Z,37.03
2022-08-05T14:41:19.754Z,36.60
2022-08-05T14:43:59.244Z,36.45
2022-08-05T14:46:35.107Z,36.00
2022-08-05T14:49:08.194Z,36.22
2022-08-05T14:51:42.595Z,36.50
2022-08-05T14:54:28.311Z,36.86
2022-08-05T14:56:59.421Z,36.69
2022-08-05T14:59:35.365Z,36.44
2022-08-05T15:02:14.699Z,36.25
2022-08-05T15:04:44.854Z,35.79
2022-08-05T15:08:06.641Z,35.40
2022-08-05T15:10:09.927Z,35.21
2022-08-05T15:12:59.851Z,35.32
2022-08-05T15:15:54.107Z,34.99
2022-08-05T15:18:17.301Z,35.41
2022-08-05T15:20:46.272Z,35.59
2022-08-05T15:23:15.770Z,35.43
2022-08-05T15:25:52.060Z,35.01
2022-08-05T15:28:27.643Z,35.29
2022-08-05T15:30:57.496Z,35.38
2022-08-05T15:34:04.614Z,35.19
2022-08-05T15:36:17.378Z,34.95
2022-08-05T15:40:41.137Z,34.72
2022-08-05T15:41:55.544Z,35.11
2022-08-05T15:44:26.399Z,35.34
2022-08-05T15:46:55.947Z,35.11
2022-08-05T15:49:40.746Z,35.14
2022-08-05T15:52:28.981Z,35.00
2022-08-05T15:54:58.377Z,35.57
2022-08-05T15:57:33.138Z,35.74
2022-08-05T16:00:05.165Z,35.21
2022-08-05T16:02:33.864Z,35.53
2022-08-05T16:05:02.951Z,35.66
2022-08-05T16:07:33.584Z,35.76
2022-08-05T16:10:01.859Z,34.89
2022-08-05T16:12:31.162Z,35.27
2022-08-05T16:15:02.304Z,34.35
2022-08-05T16:17:30.581Z,34.04
2022-08-05T16:20:05.160Z,34.90
2022-08-05T16:22:39.857Z,35.77
2022-08-05T16:25:10.421Z,34.96
